createdAt,value
2022-11-26T00:00:30.828Z,11.40
2022-11-26T00:02:59.069Z,11.20
2022-11-26T00:05:32.550Z,11.20
2022-11-26T00:08:02.895Z,11.30
2022-11-26T00:10:35.212Z,11.20
2022-11-26T00:13:03.230Z,11.50
2022-11-26T00:15:32.599Z,11.40
2022-11-26T00:18:00.445Z,11.60
2022-11-26T00:20:31.558Z,11.80
2022-11-26T00:23:04.155Z,11.90
2022-11-26T00:25:40.142Z,11.60
2022-11-26T00:28:31.019Z,11.50
2022-11-26T00:31:00.618Z,11.20
2022-11-26T00:33:29.588Z,11.30
2022-11-26T00:35:59.844Z,11.40
2022-11-26T00:38:30.579Z,11.40
2022-11-26T00:40:59.507Z,11.50
2022-11-26T00:43:27.354Z,11.30
2022-11-26T00:45:55.154Z,11.30
2022-11-26T00:48:23.026Z,11.40
2022-11-26T00:50:52.522Z,11.30
2022-11-26T00:53:23.373Z,11.30
2022-11-26T00:55:52.508Z,11.50
2022-11-26T00:58:25.645Z,11.50
2022-11-26T01:00:54.441Z,11.00
2022-11-26T01:03:22.575Z,10.90
2022-11-26T01:05:51.937Z,11.20
2022-11-26T01:08:26.636Z,11.10
2022-11-26T01:10:55.789Z,11.20
2022-11-26T01:13:23.821Z,11.10
2022-11-26T01:15:51.832Z,11.20
2022-11-26T01:18:21.973Z,11.20
2022-11-26T01:20:50.082Z,11.40
2022-11-26T01:23:20.118Z,11.30
2022-11-26T01:25:48.768Z,10.90
2022-11-26T01:28:19.806Z,10.80
2022-11-26T01:30:47.797Z,11.00
2022-11-26T01:33:15.638Z,10.90
2022-11-26T01:35:43.450Z,10.80
2022-11-26T01:38:13.957Z,10.80
2022-11-26T01:41:09.085Z,10.80
2022-11-26T01:43:42.356Z,10.60
2022-11-26T01:46:16.297Z,10.80
2022-11-26T01:48:44.866Z,10.90
2022-11-26T01:51:14.189Z,10.90
2022-11-26T01:53:53.823Z,11.00
2022-11-26T01:56:28.909Z,11.30
2022-11-26T01:59:07.266Z,11.10
2022-11-26T02:01:35.912Z,11.00
2022-11-26T02:04:15.828Z,11.10
2022-11-26T02:06:45.847Z,11.30
2022-11-26T02:09:14.269Z,11.10
2022-11-26T02:11:42.434Z,11.10
2022-11-26T02:14:15.169Z,11.40
2022-11-26T02:17:16.373Z,11.40
2022-11-26T02:20:11.354Z,11.10
2022-11-26T02:23:09.476Z,11.30
2022-11-26T02:26:03.875Z,11.50
2022-11-26T02:28:53.253Z,11.30
2022-11-26T02:31:26.975Z,11.30
2022-11-26T02:33:59.155Z,11.30
2022-11-26T02:36:33.210Z,11.40
2022-11-26T02:39:12.694Z,11.40
2022-11-26T02:41:45.223Z,11.40
2022-11-26T02:44:14.736Z,11.30
2022-11-26T02:46:46.777Z,11.20
2022-11-26T02:49:18.677Z,11.30
2022-11-26T02:51:48.719Z,11.30
2022-11-26T02:54:17.833Z,11.30
2022-11-26T02:56:45.827Z,11.40
2022-11-26T02:59:15.014Z,11.30
2022-11-26T03:01:50.338Z,11.10
2022-11-26T03:04:23.684Z,10.80
2022-11-26T03:06:52.955Z,10.70
2022-11-26T03:09:23.605Z,10.80
2022-11-26T03:11:51.693Z,11.00
2022-11-26T03:14:19.548Z,11.00
2022-11-26T03:16:48.703Z,10.90
2022-11-26T03:19:17.048Z,11.10
2022-11-26T03:21:44.868Z,10.90
2022-11-26T03:24:12.651Z,11.10
2022-11-26T03:26:40.486Z,11.20
2022-11-26T03:29:08.304Z,11.30
2022-11-26T03:31:36.222Z,11.20
2022-11-26T03:34:05.428Z,11.00
2022-11-26T03:36:33.392Z,10.90
2022-11-26T03:39:01.349Z,10.90
2022-11-26T03:41:29.263Z,11.00
2022-11-26T03:43:57.095Z,10.70
2022-11-26T03:46:24.891Z,10.60
2022-11-26T03:48:52.799Z,10.80
2022-11-26T03:51:22.133Z,10.80
2022-11-26T03:53:49.983Z,10.90
2022-11-26T03:56:17.793Z,10.90
2022-11-26T03:58:45.567Z,10.80
2022-11-26T04:01:14.613Z,10.70
2022-11-26T04:03:43.158Z,10.90
2022-11-26T04:06:10.986Z,11.00
2022-11-26T04:08:40.124Z,11.00
2022-11-26T04:11:08.185Z,11.00
2022-11-26T04:13:36.218Z,11.10
2022-11-26T04:16:04.050Z,11.00
2022-11-26T04:18:31.872Z,10.80
2022-11-26T04:20:59.682Z,10.60
2022-11-26T04:23:27.569Z,10.50
2022-11-26T04:25:56.782Z,10.40
2022-11-26T04:28:24.597Z,10.70
2022-11-26T04:30:52.424Z,10.90
2022-11-26T04:33:20.932Z,11.00
2022-11-26T04:35:48.765Z,10.80
2022-11-26T04:38:18.579Z,10.60
2022-11-26T04:40:49.850Z,10.50
2022-11-26T04:43:19.043Z,10.50
2022-11-26T04:45:46.943Z,10.50
2022-11-26T04:48:14.818Z,10.50
2022-11-26T04:50:42.688Z,10.30
2022-11-26T04:53:10.621Z,10.40
2022-11-26T04:55:38.714Z,10.40
2022-11-26T04:58:06.490Z,10.40
2022-11-26T05:00:35.681Z,10.30
2022-11-26T05:03:03.555Z,10.50
2022-11-26T05:05:31.411Z,10.60
2022-11-26T05:07:59.324Z,10.50
2022-11-26T05:10:27.255Z,10.60
2022-11-26T05:12:55.061Z,10.70
2022-11-26T05:15:22.876Z,10.80
2022-11-26T05:17:52.120Z,10.60
2022-11-26T05:20:20.150Z,10.70
2022-11-26T05:22:47.959Z,10.70
2022-11-26T05:25:15.770Z,10.70
2022-11-26T05:27:43.555Z,10.80
2022-11-26T05:30:12.479Z,10.80
2022-11-26T05:32:40.297Z,10.80
2022-11-26T05:35:10.173Z,10.70
2022-11-26T05:37:38.316Z,10.70
2022-11-26T05:40:07.902Z,10.60
2022-11-26T05:42:35.914Z,10.70
2022-11-26T05:45:04.062Z,10.70
2022-11-26T05:47:31.884Z,10.60
2022-11-26T05:49:59.673Z,10.50
2022-11-26T05:52:28.879Z,10.50
2022-11-26T05:54:56.783Z,10.50
2022-11-26T05:57:24.749Z,10.40
2022-11-26T05:59:52.578Z,10.40
2022-11-26T06:02:20.559Z,10.40
2022-11-26T06:04:49.632Z,10.40
2022-11-26T06:07:17.459Z,10.40
2022-11-26T06:09:46.683Z,10.30
2022-11-26T06:12:14.512Z,10.40
2022-11-26T06:14:43.561Z,10.40
2022-11-26T06:17:11.709Z,10.20
2022-11-26T06:19:39.586Z,10.20
2022-11-26T06:22:07.849Z,10.20
2022-11-26T06:24:36.035Z,10.20
2022-11-26T06:27:05.545Z,10.20
2022-11-26T06:29:33.434Z,10.40
2022-11-26T06:32:01.321Z,10.40
2022-11-26T06:34:29.147Z,10.40
2022-11-26T06:36:57.007Z,10.30
2022-11-26T06:39:24.827Z,10.20
2022-11-26T06:41:53.017Z,10.20
2022-11-26T06:44:22.173Z,10.20
2022-11-26T06:46:49.958Z,9.90
2022-11-26T06:49:17.771Z,9.60
2022-11-26T06:51:45.562Z,9.60
2022-11-26T06:54:13.413Z,9.60
2022-11-26T06:56:41.209Z,9.60
2022-11-26T06:59:08.998Z,9.50
2022-11-26T07:01:38.687Z,9.50
2022-11-26T07:04:07.147Z,9.50
2022-11-26T07:06:35.807Z,9.40
2022-11-26T07:09:06.606Z,9.40
2022-11-26T07:11:35.298Z,9.30
2022-11-26T07:14:03.398Z,9.20
2022-11-26T07:16:31.612Z,9.20
2022-11-26T07:19:03.216Z,9.20
2022-11-26T07:21:31.864Z,9.10
2022-11-26T07:24:00.125Z,9.10
2022-11-26T07:26:27.958Z,9.00
2022-11-26T07:28:55.762Z,9.10
2022-11-26T07:31:24.439Z,9.20
2022-11-26T07:33:52.806Z,9.20
2022-11-26T07:36:23.890Z,9.20
2022-11-26T07:38:51.757Z,9.20
2022-11-26T07:41:20.684Z,9.00
2022-11-26T07:43:48.787Z,9.20
2022-11-26T07:46:18.883Z,9.30
2022-11-26T07:48:47.394Z,9.40
2022-11-26T07:51:18.565Z,9.50
2022-11-26T07:53:47.934Z,9.50
2022-11-26T07:56:16.299Z,9.60
2022-11-26T07:58:44.284Z,9.60
2022-11-26T08:01:13.892Z,9.70
2022-11-26T08:03:44.153Z,9.80
2022-11-26T08:06:14.896Z,9.70
2022-11-26T08:08:43.035Z,9.50
2022-11-26T08:11:16.255Z,9.70
2022-11-26T08:13:44.548Z,9.90
2022-11-26T08:16:13.061Z,10.00
2022-11-26T08:18:41.128Z,10.00
2022-11-26T08:21:09.192Z,9.90
2022-11-26T08:23:37.101Z,9.80
2022-11-26T08:28:59.712Z,10.00
2022-11-26T08:31:28.343Z,10.00
2022-11-26T08:33:58.140Z,10.00
2022-11-26T08:36:26.246Z,10.20
2022-11-26T08:38:54.031Z,10.20
2022-11-26T08:41:22.031Z,10.20
2022-11-26T08:44:06.259Z,10.20
2022-11-26T08:46:36.881Z,10.10
2022-11-26T08:49:05.416Z,10.30
2022-11-26T08:51:33.520Z,10.30
2022-11-26T08:54:01.362Z,10.40
2022-11-26T08:56:29.200Z,10.50
2022-11-26T08:58:57.216Z,10.50
2022-11-26T09:01:27.383Z,10.50
2022-11-26T09:03:58.263Z,10.50
2022-11-26T09:06:28.060Z,10.60
2022-11-26T09:09:14.903Z,10.70
2022-11-26T09:11:46.091Z,10.80
2022-11-26T09:14:14.719Z,10.90
2022-11-26T09:16:42.774Z,10.80
2022-11-26T09:19:14.566Z,10.90
2022-11-26T09:21:42.679Z,10.70
2022-11-26T09:24:10.540Z,10.70
2022-11-26T09:26:38.381Z,10.70
2022-11-26T09:29:06.499Z,10.90
2022-11-26T09:31:34.355Z,11.10
2022-11-26T09:34:03.682Z,11.00
2022-11-26T09:36:33.031Z,11.00
2022-11-26T09:39:01.253Z,11.00
2022-11-26T09:41:40.597Z,10.80
2022-11-26T09:44:29.617Z,10.80
2022-11-26T09:47:12.732Z,10.80
2022-11-26T09:49:51.388Z,10.90
2022-11-26T09:52:23.166Z,11.00
2022-11-26T09:54:56.053Z,11.00
2022-11-26T09:57:29.496Z,11.00
2022-11-26T09:59:57.948Z,11.00
2022-11-26T10:02:26.813Z,11.10
2022-11-26T10:04:54.878Z,11.10
2022-11-26T10:07:51.514Z,11.20
2022-11-26T10:10:22.444Z,11.40
2022-11-26T10:13:18.612Z,11.40
2022-11-26T10:15:55.958Z,11.30
2022-11-26T10:18:34.031Z,11.30
2022-11-26T10:21:14.494Z,11.20
2022-11-26T10:23:47.119Z,11.30
2022-11-26T10:26:18.789Z,11.50
2022-11-26T10:28:48.457Z,11.60
2022-11-26T10:31:23.456Z,11.80
2022-11-26T10:33:56.058Z,12.00
2022-11-26T10:36:26.980Z,11.90
2022-11-26T10:38:57.254Z,12.10
2022-11-26T10:41:28.955Z,12.10
2022-11-26T10:43:56.785Z,12.20
2022-11-26T10:46:36.261Z,12.20
2022-11-26T10:49:18.185Z,12.30
2022-11-26T10:51:50.002Z,12.50
2022-11-26T10:54:30.802Z,12.80
2022-11-26T10:57:05.378Z,12.80
2022-11-26T10:59:40.419Z,12.90
2022-11-26T11:02:31.513Z,13.00
2022-11-26T11:05:02.263Z,13.00
2022-11-26T11:07:35.119Z,13.10
2022-11-26T11:10:06.760Z,13.20
2022-11-26T11:12:34.661Z,13.20
2022-11-26T11:15:21.055Z,13.20
2022-11-26T11:17:56.561Z,13.20
2022-11-26T11:20:33.236Z,12.90
2022-11-26T11:23:19.047Z,12.90
2022-11-26T11:25:59.604Z,12.90
2022-11-26T11:28:30.001Z,13.00
2022-11-26T11:31:09.293Z,12.80
2022-11-26T11:33:37.123Z,12.70
2022-11-26T11:36:15.019Z,12.50
2022-11-26T11:38:48.484Z,12.50
2022-11-26T11:41:24.545Z,12.50
2022-11-26T11:43:53.694Z,12.60
2022-11-26T11:46:53.554Z,12.80
2022-11-26T11:49:31.062Z,12.90
2022-11-26T11:52:12.903Z,13.00
2022-11-26T11:54:54.397Z,12.70
2022-11-26T11:57:37.458Z,12.60
2022-11-26T12:00:13.186Z,12.50
2022-11-26T12:03:11.195Z,12.50
2022-11-26T12:06:00.039Z,12.60
2022-11-26T12:08:41.114Z,12.60
2022-11-26T12:11:24.450Z,12.70
2022-11-26T12:13:58.107Z,12.80
2022-11-26T12:16:29.734Z,12.90
2022-11-26T12:19:03.042Z,12.80
2022-11-26T12:21:38.121Z,12.60
2022-11-26T12:24:10.574Z,12.50
2022-11-26T12:26:42.334Z,12.40
2022-11-26T12:29:17.225Z,12.50
2022-11-26T12:31:50.017Z,12.50
2022-11-26T12:34:29.528Z,12.80
2022-11-26T12:37:00.322Z,12.80
2022-11-26T12:39:39.627Z,12.70
2022-11-26T12:42:17.799Z,12.60
2022-11-26T12:44:51.694Z,12.70
2022-11-26T12:47:25.527Z,12.50
2022-11-26T12:50:06.266Z,12.30
2022-11-26T12:52:41.879Z,12.10
2022-11-26T12:55:20.546Z,12.10
2022-11-26T12:57:53.807Z,12.20
2022-11-26T13:00:31.365Z,12.40
2022-11-26T13:03:03.172Z,12.70
2022-11-26T13:05:39.181Z,12.70
2022-11-26T13:08:27.979Z,12.60
2022-11-26T13:11:10.396Z,12.20
2022-11-26T13:13:48.956Z,12.20
2022-11-26T13:16:24.843Z,12.20
2022-11-26T13:18:56.858Z,12.30
2022-11-26T13:21:38.493Z,12.20
2022-11-26T13:24:25.721Z,12.10
2022-11-26T13:27:13.228Z,12.30
2022-11-26T13:30:05.655Z,12.40
2022-11-26T13:33:09.604Z,12.40
2022-11-26T13:36:08.594Z,12.50
2022-11-26T13:38:49.238Z,12.70
2022-11-26T13:41:28.510Z,12.90
2022-11-26T13:44:19.330Z,12.70
2022-11-26T13:46:50.933Z,12.60
2022-11-26T13:49:23.663Z,12.80
2022-11-26T13:51:56.282Z,12.60
2022-11-26T13:54:29.737Z,12.50
2022-11-26T13:57:01.645Z,12.50
2022-11-26T13:59:31.004Z,12.40
2022-11-26T14:01:59.117Z,12.30
2022-11-26T14:04:54.510Z,12.20
2022-11-26T14:07:22.469Z,12.40
2022-11-26T14:09:53.807Z,12.30
2022-11-26T14:12:22.713Z,12.50
2022-11-26T14:14:50.714Z,12.60
2022-11-26T14:17:28.979Z,12.60
2022-11-26T14:20:03.842Z,12.70
2022-11-26T14:22:33.764Z,12.80
2022-11-26T14:25:03.996Z,12.90
2022-11-26T14:27:34.501Z,12.80
2022-11-26T14:30:19.654Z,12.70
2022-11-26T14:32:54.133Z,12.70
2022-11-26T14:35:33.602Z,12.70
2022-11-26T14:38:04.287Z,12.60
2022-11-26T14:40:34.070Z,12.50
2022-11-26T14:43:17.124Z,12.30
2022-11-26T14:45:46.102Z,12.10
2022-11-26T14:48:24.822Z,11.90
2022-11-26T14:50:55.653Z,11.80
2022-11-26T14:53:26.198Z,11.50
2022-11-26T14:55:54.945Z,11.40
2022-11-26T14:58:31.359Z,11.50
2022-11-26T15:01:07.296Z,11.60
2022-11-26T15:03:35.883Z,11.50
2022-11-26T15:06:05.361Z,11.50
2022-11-26T15:08:33.461Z,11.50
2022-11-26T15:11:03.472Z,11.50
2022-11-26T15:13:34.790Z,11.60
2022-11-26T15:16:04.699Z,11.50
2022-11-26T15:18:36.296Z,11.60
2022-11-26T15:21:06.664Z,11.60
2022-11-26T15:23:39.259Z,11.50
2022-11-26T15:26:07.429Z,11.40
2022-11-26T15:28:39.090Z,11.40
2022-11-26T15:31:08.883Z,11.40
2022-11-26T15:33:38.603Z,11.40
2022-11-26T15:36:16.024Z,11.40
2022-11-26T15:39:01.384Z,11.50
2022-11-26T15:41:29.457Z,11.60
2022-11-26T15:43:59.958Z,11.50
2022-11-26T15:46:31.986Z,11.50
2022-11-26T15:49:03.652Z,11.50
2022-11-26T15:51:37.248Z,11.20
2022-11-26T15:54:07.136Z,11.30
2022-11-26T15:56:39.196Z,11.30
2022-11-26T15:59:15.250Z,11.20
2022-11-26T16:01:46.451Z,11.20
2022-11-26T16:04:38.551Z,11.10
2022-11-26T16:07:13.105Z,11.00
2022-11-26T16:09:41.272Z,10.90
2022-11-26T16:12:27.980Z,10.80
2022-11-26T16:15:13.433Z,10.60
2022-11-26T16:17:44.029Z,10.50
2022-11-26T16:20:18.302Z,10.40
2022-11-26T16:22:51.563Z,10.30
2022-11-26T16:25:24.487Z,10.30
2022-11-26T16:28:07.368Z,10.30
2022-11-26T16:30:36.038Z,10.30
2022-11-26T16:33:04.182Z,10.20
2022-11-26T16:35:47.602Z,9.90
2022-11-26T16:38:25.057Z,9.80
2022-11-26T16:40:53.869Z,9.70
2022-11-26T16:43:21.994Z,9.70
2022-11-26T16:45:51.449Z,9.80
2022-11-26T16:48:24.888Z,9.70
2022-11-26T16:50:56.720Z,9.70
2022-11-26T16:53:25.919Z,9.60
2022-11-26T16:55:54.969Z,9.50
2022-11-26T16:58:28.088Z,9.50
2022-11-26T17:00:57.125Z,9.30
2022-11-26T17:03:27.325Z,9.30
2022-11-26T17:05:59.347Z,9.10
2022-11-26T17:08:29.996Z,8.90
2022-11-26T17:10:58.064Z,8.90
2022-11-26T17:13:28.737Z,8.90
2022-11-26T17:15:57.577Z,8.70
2022-11-26T17:18:26.235Z,8.80
2022-11-26T17:20:54.649Z,8.90
2022-11-26T17:23:22.747Z,8.80
2022-11-26T17:25:54.784Z,8.80
2022-11-26T17:28:23.211Z,8.90
2022-11-26T17:30:51.720Z,8.90
2022-11-26T17:33:19.837Z,8.80
2022-11-26T17:35:47.992Z,8.70
2022-11-26T17:38:18.049Z,8.70
2022-11-26T17:40:46.196Z,8.70
2022-11-26T17:43:16.895Z,8.80
2022-11-26T17:45:44.993Z,8.90
2022-11-26T17:48:14.344Z,8.70
2022-11-26T17:50:42.648Z,8.60
2022-11-26T17:53:10.601Z,8.60
2022-11-26T17:55:39.093Z,8.40
2022-11-26T17:58:06.872Z,8.50
2022-11-26T18:00:36.056Z,8.50
2022-11-26T18:03:03.934Z,8.50
2022-11-26T18:05:31.856Z,8.30
2022-11-26T18:07:59.711Z,8.60
2022-11-26T18:10:27.591Z,8.70
2022-11-26T18:12:55.728Z,8.70
2022-11-26T18:15:26.699Z,8.50
2022-11-26T18:17:56.690Z,8.40
2022-11-26T18:20:26.743Z,8.20
2022-11-26T18:22:56.471Z,8.10
2022-11-26T18:25:24.360Z,8.10
2022-11-26T18:27:53.001Z,7.90
2022-11-26T18:30:21.624Z,7.90
2022-11-26T18:32:49.445Z,7.90
2022-11-26T18:35:18.882Z,7.90
2022-11-26T18:37:46.887Z,8.00
2022-11-26T18:40:16.981Z,7.90
2022-11-26T18:42:45.210Z,7.90
2022-11-26T18:45:15.789Z,8.00
2022-11-26T18:47:43.613Z,8.10
2022-11-26T18:50:13.559Z,8.00
2022-11-26T18:52:42.701Z,8.10
2022-11-26T18:55:10.765Z,8.20
2022-11-26T18:57:38.536Z,8.10
2022-11-26T19:00:09.034Z,8.10
2022-11-26T19:02:37.112Z,8.10
2022-11-26T19:05:05.383Z,8.10
2022-11-26T19:07:33.441Z,8.00
2022-11-26T19:10:02.662Z,8.10
2022-11-26T19:12:30.712Z,8.00
2022-11-26T19:14:58.510Z,8.00
2022-11-26T19:17:26.370Z,8.00
2022-11-26T19:19:54.227Z,7.80
2022-11-26T19:22:22.008Z,7.70
2022-11-26T19:24:49.912Z,7.70
2022-11-26T19:27:19.020Z,7.60
2022-11-26T19:29:46.868Z,7.50
2022-11-26T19:32:14.655Z,7.70
2022-11-26T19:34:42.476Z,7.70
2022-11-26T19:37:10.407Z,7.90
2022-11-26T19:39:38.360Z,8.00
2022-11-26T19:42:06.735Z,7.90
2022-11-26T19:44:36.877Z,7.90
2022-11-26T19:47:04.854Z,7.90
2022-11-26T19:49:32.653Z,7.90
2022-11-26T19:52:00.493Z,7.80
2022-11-26T19:54:28.338Z,7.90
2022-11-26T19:56:56.235Z,7.80
2022-11-26T19:59:24.073Z,7.80
2022-11-26T20:01:55.644Z,7.80
2022-11-26T20:04:27.335Z,7.80
2022-11-26T20:06:55.187Z,8.00
2022-11-26T20:09:23.298Z,7.70
2022-11-26T20:11:51.142Z,7.60
2022-11-26T20:14:19.126Z,7.60
2022-11-26T20:16:46.977Z,7.60
2022-11-26T20:19:16.200Z,7.60
2022-11-26T20:21:44.022Z,7.60
2022-11-26T20:24:15.321Z,7.70
2022-11-26T20:26:45.059Z,7.70
2022-11-26T20:29:14.821Z,7.70
2022-11-26T20:31:46.306Z,7.60
2022-11-26T20:34:15.974Z,7.70
2022-11-26T20:36:44.015Z,7.70
2022-11-26T20:39:14.608Z,7.70
2022-11-26T20:41:42.801Z,7.70
2022-11-26T20:44:11.360Z,7.70
2022-11-26T20:46:39.682Z,7.70
2022-11-26T20:49:10.813Z,7.70
2022-11-26T20:51:40.078Z,7.70
2022-11-26T20:54:07.893Z,7.80
2022-11-26T20:56:35.715Z,7.70
2022-11-26T20:59:03.844Z,7.60
2022-11-26T21:01:32.441Z,7.40
2022-11-26T21:04:00.575Z,7.30
2022-11-26T21:06:30.558Z,7.30
2022-11-26T21:09:01.048Z,7.40
2022-11-26T21:11:29.164Z,7.40
2022-11-26T21:13:58.490Z,7.50
2022-11-26T21:16:26.721Z,7.50
2022-11-26T21:18:55.058Z,7.50
2022-11-26T21:21:24.610Z,7.50
2022-11-26T21:23:52.506Z,7.50
2022-11-26T21:26:23.314Z,7.60
2022-11-26T21:28:52.436Z,7.50
2022-11-26T21:31:21.416Z,7.30
2022-11-26T21:33:55.929Z,7.20
2022-11-26T21:36:24.620Z,7.20
2022-11-26T21:38:52.662Z,7.30
2022-11-26T21:41:22.518Z,7.30
2022-11-26T21:43:50.690Z,7.30
2022-11-26T21:46:21.045Z,7.30
2022-11-26T21:48:48.930Z,7.30
2022-11-26T21:51:18.517Z,7.30
2022-11-26T21:53:47.882Z,7.30
2022-11-26T21:56:20.123Z,7.30
2022-11-26T21:58:49.938Z,7.30
2022-11-26T22:01:20.185Z,7.20
2022-11-26T22:03:50.178Z,7.00
2022-11-26T22:06:19.522Z,6.90
2022-11-26T22:08:48.279Z,6.70
2022-11-26T22:11:17.698Z,6.70
2022-11-26T22:13:45.792Z,6.80
2022-11-26T22:16:16.677Z,6.80
2022-11-26T22:18:45.863Z,6.90
2022-11-26T22:21:15.796Z,6.90
2022-11-26T22:23:43.686Z,6.90
2022-11-26T22:26:11.672Z,6.80
2022-11-26T22:28:39.638Z,6.80
2022-11-26T22:31:12.531Z,6.80
2022-11-26T22:33:41.946Z,6.90
2022-11-26T22:36:10.315Z,6.80
2022-11-26T22:38:39.760Z,6.80
2022-11-26T22:41:11.202Z,6.70
2022-11-26T22:43:39.637Z,6.70
2022-11-26T22:46:09.488Z,6.60
2022-11-26T22:48:37.477Z,6.60
2022-11-26T22:51:07.453Z,6.60
2022-11-26T22:53:35.240Z,6.50
2022-11-26T22:56:04.731Z,6.40
2022-11-26T22:58:34.853Z,6.50
2022-11-26T23:01:05.468Z,6.50
2022-11-26T23:03:35.287Z,6.40
2022-11-26T23:06:04.950Z,6.40
2022-11-26T23:08:34.343Z,6.30
2022-11-26T23:11:06.294Z,6.30
2022-11-26T23:13:34.228Z,6.30
2022-11-26T23:16:02.210Z,6.20
2022-11-26T23:18:30.143Z,6.20
2022-11-26T23:21:09.146Z,6.30
2022-11-26T23:23:40.048Z,6.00
2022-11-26T23:26:09.362Z,6.00
2022-11-26T23:28:37.413Z,6.10
2022-11-26T23:31:07.469Z,6.00
2022-11-26T23:33:36.430Z,6.00
2022-11-26T23:36:04.839Z,6.10
2022-11-26T23:38:32.644Z,6.10
2022-11-26T23:41:03.456Z,6.10
2022-11-26T23:43:32.799Z,6.10
2022-11-26T23:46:02.626Z,5.90
2022-11-26T23:48:30.832Z,6.00
2022-11-26T23:50:58.950Z,5.90
2022-11-26T23:53:27.266Z,5.90
2022-11-26T23:55:55.259Z,6.00
2022-11-26T23:58:24.341Z,5.90
